Terminal Aerodrome Forecast
Issued by NWS

Home | Current Version | Previous Version | Text Only | Print | Product List | Glossary On
Versions: 1 2 3 4 5 6 7 8 9 10 11 12 13 14
000
FTUS46 KHNX 271720
TAFVIS
TAF
KVIS 271720Z 2718/2818 VRB03KT 5SM HZ SCT150
     FM272100 VRB04KT P6SM SCT150
     FM280100 31010KT P6SM SCT040 BKN100
      TEMPO 2804/2808 -RA BKN040
     FM280800 VRB04KT 5SM -RA BR OVC040=

USA.gov is the U.S. government's official web portal to all federal, state and local government web resources and services.